Time;durP1;ratioP1;P1;durP2;ratioP2;P2;SDS_P1;SDS_P2;PMS_P1;PMS_P2;Temp;Humidity;BMP_temperature;BMP_pressure;BME280_temperature;BME280_humidity;BME280_pressure;Samples;Min_cycle;Max_cycle;Signal;HPM_P1;HPM_P2
2023/07/09 00:02:18;;;;;;;;;11.75;10.00;;;;;25.94;52.52;101061.41;5079275;28;46449;-67
2023/07/09 00:04:44;;;;;;;;;10.50;9.00;;;;;25.91;53.38;101056.25;5085782;27;45468;-67
2023/07/09 00:07:19;;;;;;;;;12.00;9.25;;;;;25.86;53.43;101055.81;5064510;27;45285;-67
2023/07/09 00:09:45;;;;;;;;;12.50;10.00;;;;;25.84;53.37;101063.13;5078169;28;45170;-67
2023/07/09 00:12:15;;;;;;;;;11.50;9.50;;;;;25.80;53.10;101059.03;5077373;28;47162;-67
2023/07/09 00:14:41;;;;;;;;;12.75;12.25;;;;;25.77;53.65;101060.13;5071085;28;45871;-67
2023/07/09 00:17:31;;;;;;;;;12.50;11.75;;;;;25.75;53.56;101059.41;5063774;28;45346;-67
2023/07/09 00:19:57;;;;;;;;;12.75;10.75;;;;;25.74;53.98;101059.56;5057650;28;45432;-67
2023/07/09 00:22:22;;;;;;;;;13.25;8.25;;;;;25.70;53.55;101058.97;5068786;28;47182;-67
2023/07/09 00:24:50;;;;;;;;;12.50;10.25;;;;;25.67;53.95;101055.69;5078201;28;45592;-68
2023/07/09 00:27:18;;;;;;;;;9.75;9.75;;;;;25.68;53.64;101062.78;5080615;28;45513;-67
2023/07/09 00:29:43;;;;;;;;;11.25;9.25;;;;;25.62;54.04;101064.16;5078524;28;45283;-69
2023/07/09 00:32:16;;;;;;;;;10.25;10.25;;;;;25.58;54.49;101068.91;5080393;28;48113;-68
2023/07/09 00:34:48;;;;;;;;;9.75;9.50;;;;;25.55;54.51;101069.19;5079923;28;45829;-68
2023/07/09 00:37:13;;;;;;;;;12.25;9.25;;;;;25.51;54.22;101072.25;5080663;27;45272;-68
2023/07/09 00:39:40;;;;;;;;;11.50;9.50;;;;;25.46;54.40;101066.41;5077746;28;45526;-68
2023/07/09 00:42:07;;;;;;;;;12.25;10.50;;;;;25.46;54.88;101071.78;5079079;28;46531;-68
2023/07/09 00:44:33;;;;;;;;;12.75;10.00;;;;;25.44;54.74;101079.94;5078203;27;45218;-68
2023/07/09 00:47:00;;;;;;;;;9.75;8.25;;;;;25.38;55.02;101078.63;5080776;28;45347;-68
2023/07/09 00:49:29;;;;;;;;;10.25;10.25;;;;;25.35;55.33;101086.94;5079394;27;45563;-68
2023/07/09 00:51:57;;;;;;;;;9.00;9.00;;;;;25.33;55.39;101085.38;5059142;28;46120;-68
2023/07/09 00:54:30;;;;;;;;;11.00;9.50;;;;;25.30;54.96;101086.50;5077446;28;45295;-68
2023/07/09 00:56:59;;;;;;;;;11.25;10.25;;;;;25.24;55.33;101092.31;5073044;28;45453;-68
2023/07/09 00:59:28;;;;;;;;;11.00;10.00;;;;;25.19;55.91;101075.78;5064174;28;45844;-68
2023/07/09 01:01:54;;;;;;;;;12.50;12.50;;;;;25.17;56.09;101083.09;5073918;28;47551;-68
2023/07/09 01:04:21;;;;;;;;;12.00;10.00;;;;;25.14;56.26;101089.56;5077347;28;45374;-68
2023/07/09 01:06:54;;;;;;;;;11.00;8.75;;;;;25.11;56.12;101097.00;5072894;27;45291;-68
2023/07/09 01:09:21;;;;;;;;;11.00;10.50;;;;;25.09;55.42;101090.91;5078098;28;46032;-68
2023/07/09 01:11:47;;;;;;;;;10.25;9.75;;;;;25.07;56.15;101090.19;5079516;28;45497;-68
2023/07/09 01:14:16;;;;;;;;;11.75;8.00;;;;;25.07;55.88;101099.06;5080586;27;45428;-68
2023/07/09 01:16:53;;;;;;;;;13.75;10.25;;;;;25.03;55.80;101097.63;5057523;28;45368;-68
2023/07/09 01:19:23;;;;;;;;;10.50;10.00;;;;;24.99;56.05;101094.34;5094909;27;45531;-68
2023/07/09 01:21:50;;;;;;;;;12.75;9.00;;;;;24.95;56.82;101095.59;5079739;28;46704;-68
2023/07/09 01:25:06;;;;;;;;;10.00;9.25;;;;;24.93;56.50;101099.34;5079331;27;45275;-68
2023/07/09 01:27:37;;;;;;;;;13.00;11.00;;;;;24.88;57.45;101093.50;5072355;28;45401;-68
2023/07/09 01:30:07;;;;;;;;;7.50;6.75;;;;;24.87;56.82;101099.88;5078588;28;45934;-68
2023/07/09 01:32:33;;;;;;;;;10.25;8.00;;;;;24.87;56.64;101106.06;5074124;28;46290;-68
2023/07/09 01:35:04;;;;;;;;;11.75;9.75;;;;;24.83;56.96;101110.81;5073330;28;45464;-68
2023/07/09 01:37:32;;;;;;;;;10.75;10.00;;;;;24.79;57.29;101109.38;5070858;28;45337;-68
2023/07/09 01:39:57;;;;;;;;;11.75;11.75;;;;;24.74;57.02;101110.72;5079034;28;45457;-68
2023/07/09 01:42:24;;;;;;;;;11.00;10.25;;;;;24.74;57.65;101118.75;5079214;28;45917;-68
2023/07/09 01:44:53;;;;;;;;;13.25;11.25;;;;;24.72;57.28;101118.88;5075951;27;45354;-68
2023/07/09 01:47:19;;;;;;;;;13.25;11.00;;;;;24.67;57.12;101118.41;5072152;28;45353;-68
2023/07/09 01:49:46;;;;;;;;;9.75;9.75;;;;;24.66;57.56;101118.50;5076840;28;45263;-68
2023/07/09 01:52:12;;;;;;;;;9.75;9.75;;;;;24.66;57.19;101123.88;5072507;28;46201;-68
2023/07/09 01:54:38;;;;;;;;;10.50;7.50;;;;;24.63;57.19;101123.16;5071587;28;45679;-68
2023/07/09 01:57:33;;;;;;;;;12.75;11.00;;;;;24.60;57.57;101130.56;5074394;28;45414;-68
2023/07/09 01:59:59;;;;;;;;;10.25;10.00;;;;;24.57;57.62;101123.63;5075931;28;45639;-68
2023/07/09 02:02:25;;;;;;;;;10.50;10.25;;;;;24.54;57.70;101126.56;5078962;28;48376;-68
2023/07/09 02:04:54;;;;;;;;;10.75;9.50;;;;;24.52;57.55;101128.44;5059917;28;45698;-68
2023/07/09 02:07:21;;;;;;;;;11.75;11.75;;;;;24.50;57.58;101138.44;5075800;28;45521;-68
2023/07/09 02:09:46;;;;;;;;;8.25;8.25;;;;;24.45;57.78;101127.25;5068655;28;45343;-68
2023/07/09 02:12:13;;;;;;;;;10.75;10.75;;;;;24.45;57.59;101137.94;5078821;28;46456;-68
2023/07/09 02:14:39;;;;;;;;;9.50;9.50;;;;;24.37;58.03;101125.19;5076410;28;45431;-68
2023/07/09 02:17:05;;;;;;;;;11.25;9.50;;;;;24.38;58.13;101134.94;5078994;28;45501;-68
2023/07/09 02:19:30;;;;;;;;;12.25;9.00;;;;;24.37;58.00;101124.34;5076794;28;45387;-68
2023/07/09 02:21:56;;;;;;;;;8.50;8.00;;;;;24.38;57.73;101128.69;5077204;28;45449;-68
2023/07/09 02:24:25;;;;;;;;;10.00;9.00;;;;;24.36;58.04;101126.16;5076959;28;45379;-68
2023/07/09 02:26:51;;;;;;;;;12.75;8.75;;;;;24.36;57.96;101125.31;5062385;28;45253;-68
2023/07/09 02:29:17;;;;;;;;;9.25;8.00;;;;;24.34;57.57;101121.91;5076745;28;45512;-68
2023/07/09 02:31:43;;;;;;;;;9.50;8.75;;;;;24.32;58.07;101118.50;5078668;28;46271;-68
2023/07/09 02:34:09;;;;;;;;;12.75;9.00;;;;;24.30;57.88;101121.28;5058829;28;45288;-68
2023/07/09 02:36:34;;;;;;;;;12.00;9.00;;;;;24.28;58.30;101123.25;5074986;28;51139;-68
2023/07/09 02:38:59;;;;;;;;;11.50;9.25;;;;;24.27;57.63;101118.84;5079558;27;47605;-68
2023/07/09 02:41:24;;;;;;;;;11.00;9.00;;;;;24.24;57.72;101124.44;5077854;28;45534;-68
2023/07/09 02:43:50;;;;;;;;;13.00;8.25;;;;;24.23;58.42;101126.28;5078420;28;57862;-68
2023/07/09 02:46:15;;;;;;;;;10.25;9.50;;;;;24.20;58.17;101115.81;5071944;28;45381;-68
2023/07/09 02:48:40;;;;;;;;;11.00;9.25;;;;;24.22;58.11;101123.72;5077765;28;73155;-68
2023/07/09 02:51:06;;;;;;;;;10.75;10.75;;;;;24.24;58.27;101129.78;5072321;27;69638;-68
2023/07/09 02:53:31;;;;;;;;;11.25;8.75;;;;;24.24;58.58;101132.47;5078590;28;50475;-68
2023/07/09 02:55:56;;;;;;;;;10.00;10.00;;;;;24.18;58.25;101131.13;5071909;28;45264;-68
2023/07/09 02:58:22;;;;;;;;;12.25;11.00;;;;;24.15;58.88;101134.06;5071310;28;64486;-68
2023/07/09 03:00:53;;;;;;;;;15.00;13.00;;;;;24.10;58.87;101138.91;5072663;27;46635;-68
2023/07/09 03:03:19;;;;;;;;;18.50;14.00;;;;;24.07;59.39;101134.63;5078606;28;45559;-68
2023/07/09 03:05:46;;;;;;;;;10.25;10.25;;;;;24.01;59.43;101129.78;5068918;28;45503;-65
2023/07/09 03:08:11;;;;;;;;;16.00;15.25;;;;;23.98;59.48;101127.34;5072521;28;45303;-67
2023/07/09 03:10:37;;;;;;;;;11.75;10.75;;;;;23.96;59.35;101131.97;5053037;28;47452;-67
2023/07/09 03:13:02;;;;;;;;;17.00;12.00;;;;;23.91;59.76;101130.63;5071347;28;45355;-67
2023/07/09 03:15:27;;;;;;;;;14.25;11.00;;;;;23.90;59.59;101143.09;5070762;28;52633;-67
2023/07/09 03:17:53;;;;;;;;;17.75;13.25;;;;;23.88;59.65;101150.41;5071876;28;60020;-67
2023/07/09 03:20:18;;;;;;;;;10.75;10.25;;;;;23.82;59.77;101156.22;5058342;28;54691;-67
2023/07/09 03:22:44;;;;;;;;;13.00;13.00;;;;;23.78;60.79;101154.72;5077944;28;59298;-67
2023/07/09 03:25:09;;;;;;;;;16.50;10.75;;;;;23.76;60.11;101152.19;5076537;27;45769;-67
2023/07/09 03:27:34;;;;;;;;;11.25;10.50;;;;;23.75;60.37;101161.16;5052844;28;45468;-67
2023/07/09 03:30:00;;;;;;;;;15.00;12.00;;;;;23.72;60.39;101158.69;5079717;28;63302;-67
2023/07/09 03:32:25;;;;;;;;;10.75;10.50;;;;;23.68;60.19;101157.25;5081543;28;45283;-67
2023/07/09 03:34:52;;;;;;;;;11.75;9.75;;;;;23.63;60.64;101160.25;5078253;28;45378;-67
2023/07/09 03:37:18;;;;;;;;;13.25;11.50;;;;;23.61;60.63;101159.50;5081449;28;45253;-67
2023/07/09 03:39:45;;;;;;;;;10.50;10.50;;;;;23.60;60.76;101155.16;5079094;28;48153;-66
2023/07/09 03:42:11;;;;;;;;;13.50;12.25;;;;;23.56;61.12;101160.84;5081422;28;46348;-66
2023/07/09 03:44:36;;;;;;;;;12.50;9.00;;;;;23.47;61.16;101160.56;5079460;28;45665;-66
2023/07/09 03:47:02;;;;;;;;;14.25;14.25;;;;;23.46;61.05;101166.88;5081403;28;45265;-67
2023/07/09 03:49:27;;;;;;;;;12.00;9.50;;;;;23.43;61.92;101167.09;5079362;28;48427;-67
2023/07/09 03:51:52;;;;;;;;;12.50;11.50;;;;;23.42;61.21;101156.53;5078145;27;45277;-67
2023/07/09 03:54:18;;;;;;;;;12.00;10.50;;;;;23.41;61.01;101155.69;5079407;28;45257;-67
2023/07/09 03:56:44;;;;;;;;;12.75;10.75;;;;;23.40;61.15;101161.97;5078074;27;45442;-67
2023/07/09 03:59:09;;;;;;;;;11.50;10.50;;;;;23.38;60.82;101166.59;5079374;28;47257;-67
2023/07/09 04:01:35;;;;;;;;;11.75;9.25;;;;;23.33;61.24;101157.22;5076194;28;63579;-67
2023/07/09 04:04:00;;;;;;;;;11.50;9.50;;;;;23.27;61.40;101159.38;5080900;28;45259;-67
2023/07/09 04:06:25;;;;;;;;;10.75;9.00;;;;;23.27;61.55;101155.84;5072107;28;45762;-67
2023/07/09 04:08:51;;;;;;;;;8.25;8.00;;;;;23.24;61.40;101153.41;5078871;28;72211;-67
2023/07/09 04:11:16;;;;;;;;;13.50;10.50;;;;;23.25;61.18;101158.63;5074432;28;45343;-67
2023/07/09 04:13:42;;;;;;;;;11.50;10.50;;;;;23.23;61.04;101163.25;5082326;27;45434;-67
2023/07/09 04:16:10;;;;;;;;;12.25;10.00;;;;;23.20;61.30;101171.47;5078620;27;45436;-67
2023/07/09 04:18:36;;;;;;;;;11.75;10.25;;;;;23.21;60.93;101167.81;5080942;28;45446;-67
2023/07/09 04:21:01;;;;;;;;;9.25;9.25;;;;;23.20;61.31;101175.97;5079703;27;45358;-67
2023/07/09 04:23:26;;;;;;;;;11.00;9.00;;;;;23.18;61.02;101172.53;5081011;28;45946;-67
2023/07/09 04:25:52;;;;;;;;;11.75;9.00;;;;;23.17;61.06;101174.34;5073331;27;45382;-67
2023/07/09 04:28:18;;;;;;;;;12.00;10.00;;;;;23.16;61.22;101172.66;5080449;28;45358;-67
2023/07/09 04:30:51;;;;;;;;;11.00;11.00;;;;;23.16;61.58;101167.34;5074361;27;45312;-67
2023/07/09 04:33:17;;;;;;;;;11.00;9.50;;;;;23.17;61.25;101170.84;5080615;28;45321;-67
2023/07/09 04:35:47;;;;;;;;;10.75;9.00;;;;;23.16;61.35;101178.00;5076437;27;45224;-67
2023/07/09 04:38:13;;;;;;;;;14.50;11.00;;;;;23.18;61.33;101169.84;5080627;27;47240;-67
2023/07/09 04:40:38;;;;;;;;;12.00;10.75;;;;;23.18;61.29;101164.53;5070572;28;45301;-68
2023/07/09 04:43:04;;;;;;;;;10.25;10.25;;;;;23.18;61.15;101160.06;5077138;27;49506;-68
2023/07/09 04:45:29;;;;;;;;;11.75;10.00;;;;;23.17;60.94;101160.16;5067763;28;45338;-66
2023/07/09 04:47:54;;;;;;;;;12.75;11.75;;;;;23.20;60.71;101171.47;5080310;28;45555;-66
2023/07/09 04:50:20;;;;;;;;;12.25;10.00;;;;;23.21;61.10;101158.97;5074242;27;62805;-67
2023/07/09 04:52:45;;;;;;;;;8.25;7.00;;;;;23.24;61.04;101164.94;5080048;28;55778;-66
2023/07/09 04:55:10;;;;;;;;;12.00;10.00;;;;;23.25;60.82;101158.63;5077850;28;66229;-66
2023/07/09 04:57:36;;;;;;;;;12.00;10.50;;;;;23.28;60.34;101152.19;5079122;28;47127;-67
2023/07/09 05:00:04;;;;;;;;;13.00;10.00;;;;;23.27;60.37;101143.34;5074510;27;60380;-67
2023/07/09 05:02:30;;;;;;;;;11.00;9.00;;;;;23.26;60.47;101146.13;5079605;28;45406;-67
2023/07/09 05:04:55;;;;;;;;;11.25;11.00;;;;;23.25;59.95;101153.28;5074909;28;45578;-67
2023/07/09 05:07:21;;;;;;;;;13.50;11.75;;;;;23.26;59.72;101146.97;5075111;28;48208;-67
2023/07/09 05:09:47;;;;;;;;;13.75;10.75;;;;;23.24;59.81;101143.56;5077468;27;45311;-67
2023/07/09 05:12:12;;;;;;;;;10.00;9.00;;;;;23.24;59.94;101150.72;5076491;28;45351;-67
2023/07/09 05:14:38;;;;;;;;;11.75;8.00;;;;;23.22;59.78;101156.19;5078422;27;45342;-67
2023/07/09 05:17:04;;;;;;;;;10.00;9.50;;;;;23.22;59.51;101160.69;5079832;28;45365;-67
2023/07/09 05:19:29;;;;;;;;;8.75;8.75;;;;;23.22;59.64;101164.19;5077396;27;45460;-67
2023/07/09 05:21:55;;;;;;;;;12.00;11.00;;;;;23.21;59.32;101153.63;5080080;27;45248;-67
2023/07/09 05:24:20;;;;;;;;;10.00;7.25;;;;;23.22;58.88;101142.84;5059406;28;72458;-67
2023/07/09 05:26:45;;;;;;;;;9.00;7.50;;;;;23.20;58.85;101135.91;5087456;27;60980;-67
2023/07/09 05:29:11;;;;;;;;;8.50;5.75;;;;;23.23;58.91;101149.88;5061165;28;56055;-67
2023/07/09 05:31:36;;;;;;;;;11.75;8.50;;;;;23.27;58.63;101146.00;5067797;28;45707;-67
2023/07/09 05:34:01;;;;;;;;;6.50;5.00;;;;;23.31;58.65;101162.66;5071191;28;52682;-67
2023/07/09 05:36:28;;;;;;;;;10.50;7.00;;;;;23.25;58.36;101155.97;5074583;27;65500;-67
2023/07/09 05:38:55;;;;;;;;;9.75;8.25;;;;;23.38;58.34;101163.91;5081075;27;45322;-67
2023/07/09 05:41:21;;;;;;;;;9.50;8.25;;;;;23.40;58.35;101167.31;5071260;28;45846;-68
2023/07/09 05:43:46;;;;;;;;;8.00;8.00;;;;;23.43;58.09;101172.44;5078650;28;69923;-68
2023/07/09 05:46:13;;;;;;;;;10.50;7.75;;;;;23.50;57.78;101170.16;5072486;28;46905;-68
2023/07/09 05:48:38;;;;;;;;;9.00;7.00;;;;;23.53;57.67;101166.41;5062613;28;46047;-68
2023/07/09 05:51:04;;;;;;;;;9.00;7.75;;;;;23.57;57.22;101175.88;5072721;28;45449;-68
2023/07/09 05:53:31;;;;;;;;;8.00;7.00;;;;;23.61;57.45;101162.19;5071666;27;45495;-68
2023/07/09 05:55:57;;;;;;;;;9.00;8.75;;;;;23.63;57.39;101141.53;5051988;28;47326;-68
2023/07/09 05:58:23;;;;;;;;;10.00;7.00;;;;;23.67;56.69;101140.38;5070855;28;52860;-68
2023/07/09 06:00:56;;;;;;;;;10.75;7.25;;;;;23.76;56.93;101149.50;5072203;28;45515;-68
2023/07/09 06:03:24;;;;;;;;;8.75;6.00;;;;;23.84;56.52;101147.13;5079553;28;45361;-68
2023/07/09 06:05:49;;;;;;;;;10.25;8.00;;;;;23.95;56.22;101148.94;5064781;28;46820;-68
2023/07/09 06:08:24;;;;;;;;;9.25;6.25;;;;;24.04;55.94;101156.25;5059646;28;45274;-68
2023/07/09 06:11:01;;;;;;;;;8.50;7.75;;;;;24.10;55.84;101156.75;5075916;27;45263;-68
2023/07/09 06:13:30;;;;;;;;;8.25;6.00;;;;;24.15;55.68;101159.94;5078845;28;45375;-68
2023/07/09 06:15:56;;;;;;;;;9.25;7.00;;;;;24.19;55.60;101154.22;5054818;28;47044;-68
2023/07/09 06:18:23;;;;;;;;;10.00;7.75;;;;;24.31;55.32;101143.53;5075688;28;45695;-68
2023/07/09 06:20:50;;;;;;;;;6.25;6.25;;;;;24.39;55.35;101143.78;5073319;27;45269;-68
2023/07/09 06:23:16;;;;;;;;;7.25;6.00;;;;;24.45;55.09;101157.53;5075927;28;45213;-68
2023/07/09 06:25:43;;;;;;;;;7.25;7.00;;;;;24.46;54.75;101179.78;5054882;28;47180;-68
2023/07/09 06:28:08;;;;;;;;;10.50;7.00;;;;;24.50;54.75;101181.25;5076219;28;46546;-68
2023/07/09 06:30:33;;;;;;;;;8.00;7.00;;;;;24.51;54.64;101185.63;5069634;28;45275;-68
2023/07/09 06:32:59;;;;;;;;;8.00;8.00;;;;;24.56;54.52;101182.59;5076128;28;49250;-68
2023/07/09 06:35:24;;;;;;;;;10.25;6.25;;;;;24.57;55.32;101192.34;5056750;28;74155;-68
2023/07/09 06:37:49;;;;;;;;;9.75;7.75;;;;;24.61;54.20;101208.06;5078898;28;45418;-68
2023/07/09 06:40:15;;;;;;;;;7.75;7.75;;;;;24.62;54.04;101207.06;5071702;28;57392;-68
2023/07/09 06:42:40;;;;;;;;;8.00;7.00;;;;;24.65;54.08;101208.66;5078549;28;45489;-68
2023/07/09 06:45:07;;;;;;;;;8.50;7.25;;;;;24.69;54.14;101196.72;5066453;28;46290;-68
2023/07/09 06:47:32;;;;;;;;;5.00;5.00;;;;;24.75;53.22;101198.91;5078564;28;45632;-68
2023/07/09 06:49:57;;;;;;;;;6.00;6.00;;;;;24.78;53.88;101203.19;5072796;28;58054;-68
2023/07/09 06:52:23;;;;;;;;;8.50;7.25;;;;;24.90;53.63;101217.44;5075119;28;64407;-68
2023/07/09 06:54:49;;;;;;;;;8.50;5.50;;;;;24.92;53.34;101210.13;5075650;28;46018;-68
2023/07/09 06:57:14;;;;;;;;;7.50;7.50;;;;;24.98;53.25;101217.63;5075543;28;45239;-68
2023/07/09 06:59:40;;;;;;;;;9.25;6.50;;;;;24.98;52.88;101213.16;5075747;28;45394;-68
2023/07/09 07:02:05;;;;;;;;;8.00;7.00;;;;;25.03;52.99;101218.13;5073992;28;56280;-68
2023/07/09 07:04:31;;;;;;;;;10.00;9.25;;;;;25.09;52.94;101206.94;5081374;27;45966;-68
2023/07/09 07:06:56;;;;;;;;;7.25;7.25;;;;;25.12;52.59;101203.97;5081358;28;45153;-68
2023/07/09 07:09:22;;;;;;;;;9.50;6.00;;;;;25.20;52.37;101208.75;5080326;28;45500;-68
2023/07/09 07:11:49;;;;;;;;;6.00;6.00;;;;;25.27;52.41;101193.03;5081373;28;45378;-68
2023/07/09 07:14:15;;;;;;;;;9.50;6.00;;;;;25.35;52.14;101198.59;5080381;28;45475;-68
2023/07/09 07:16:41;;;;;;;;;7.00;6.00;;;;;25.39;52.14;101192.88;5081021;28;45780;-68
2023/07/09 07:19:06;;;;;;;;;6.50;6.00;;;;;25.44;51.89;101191.66;5064641;28;45357;-68
2023/07/09 07:21:31;;;;;;;;;6.50;5.50;;;;;25.42;52.03;101182.88;5095367;27;45260;-68
2023/07/09 07:23:57;;;;;;;;;6.50;4.50;;;;;25.50;51.37;101193.84;5083233;27;46389;-68
2023/07/09 07:26:22;;;;;;;;;6.00;4.75;;;;;25.61;51.13;101206.34;5071603;28;45393;-68
2023/07/09 07:28:48;;;;;;;;;4.25;4.25;;;;;25.62;50.96;101199.97;5081119;28;61640;-67
2023/07/09 07:31:13;;;;;;;;;6.50;6.25;;;;;25.69;50.77;101215.44;5073830;27;45166;-67
2023/07/09 07:33:41;;;;;;;;;6.50;6.00;;;;;25.72;50.97;101220.53;5081916;28;45352;-67
2023/07/09 07:36:07;;;;;;;;;6.75;5.50;;;;;25.72;50.80;101233.09;5068145;28;45642;-68
2023/07/09 07:38:32;;;;;;;;;8.00;8.00;;;;;25.73;50.68;101224.91;5083199;27;45349;-68
2023/07/09 07:40:57;;;;;;;;;5.50;4.50;;;;;25.72;50.99;101225.88;5073676;28;72397;-67
2023/07/09 07:43:23;;;;;;;;;9.75;7.75;;;;;25.67;50.91;101235.28;5077189;28;64853;-66
2023/07/09 07:45:48;;;;;;;;;9.25;6.25;;;;;25.62;50.98;101232.16;5069187;28;63448;-67
2023/07/09 07:48:14;;;;;;;;;6.50;6.50;;;;;25.54;50.99;101239.00;5081800;28;45420;-67
2023/07/09 07:50:40;;;;;;;;;11.00;8.00;;;;;25.48;51.45;101258.28;5076200;27;45371;-68
2023/07/09 07:53:07;;;;;;;;;9.00;8.25;;;;;25.44;51.34;101274.72;5081520;28;46316;-66
2023/07/09 07:55:33;;;;;;;;;7.00;6.25;;;;;25.39;51.76;101292.03;5073820;28;45342;-66
2023/07/09 07:58:02;;;;;;;;;9.75;9.00;;;;;25.33;51.53;101307.75;5081218;28;45277;-67
2023/07/09 08:00:28;;;;;;;;;9.00;8.75;;;;;25.27;51.72;101310.91;5067061;27;45839;-68
2023/07/09 08:02:53;;;;;;;;;11.75;9.50;;;;;25.24;51.89;101311.97;5081083;28;45350;-68
2023/07/09 08:05:19;;;;;;;;;11.00;8.75;;;;;25.19;51.98;101317.69;5075746;27;66008;-66
2023/07/09 08:07:44;;;;;;;;;9.25;7.25;;;;;25.16;52.32;101320.63;5081520;28;45431;-67
2023/07/09 08:10:11;;;;;;;;;8.75;7.25;;;;;25.13;52.32;101298.59;5059712;28;45319;-68
2023/07/09 08:12:38;;;;;;;;;8.00;7.00;;;;;25.08;52.37;101272.16;5079508;27;46359;-67
2023/07/09 08:15:04;;;;;;;;;10.25;9.00;;;;;25.08;52.24;101258.78;5079181;27;45318;-67
2023/07/09 08:17:29;;;;;;;;;8.50;7.75;;;;;24.99;52.44;101252.34;5079951;28;45338;-66
2023/07/09 08:19:55;;;;;;;;;9.25;7.75;;;;;24.94;52.37;101265.22;5077474;28;65257;-66
2023/07/09 08:22:21;;;;;;;;;11.25;8.75;;;;;24.85;52.73;101265.97;5080857;28;45394;-66
2023/07/09 08:24:47;;;;;;;;;13.50;9.50;;;;;24.78;52.83;101267.44;5061065;28;45427;-67
2023/07/09 08:27:13;;;;;;;;;7.00;7.00;;;;;24.71;53.04;101269.72;5073730;27;45281;-68
2023/07/09 08:29:39;;;;;;;;;9.00;6.50;;;;;24.66;53.25;101271.06;5079463;28;45329;-68
2023/07/09 08:32:05;;;;;;;;;7.50;7.25;;;;;24.61;53.02;101280.31;5080460;28;46303;-68
2023/07/09 08:34:31;;;;;;;;;12.00;6.50;;;;;24.54;53.25;101271.06;5079691;28;45329;-66
2023/07/09 08:36:56;;;;;;;;;9.00;8.25;;;;;24.54;53.48;101256.81;5080346;28;56245;-68
2023/07/09 08:39:22;;;;;;;;;9.00;8.50;;;;;24.59;53.38;101260.81;5078237;28;69058;-68
2023/07/09 08:41:53;;;;;;;;;10.00;7.50;;;;;24.70;53.27;101267.16;5072614;28;68924;-68
2023/07/09 08:44:27;;;;;;;;;10.25;7.50;;;;;24.74;53.50;101282.88;5078648;28;46107;-68
2023/07/09 08:47:03;;;;;;;;;10.25;8.25;;;;;24.75;53.30;101299.78;5075481;28;45481;-68
2023/07/09 08:49:31;;;;;;;;;8.75;8.25;;;;;24.80;53.64;101308.31;5078251;28;45938;-68
2023/07/09 08:51:57;;;;;;;;;12.00;11.00;;;;;24.85;53.74;101311.47;5075820;28;47664;-68
2023/07/09 08:54:43;;;;;;;;;8.50;8.50;;;;;24.91;53.88;101315.50;5094471;27;45298;-68
2023/07/09 08:57:29;;;;;;;;;8.25;8.00;;;;;24.92;53.80;101314.53;5075257;28;45339;-68
2023/07/09 09:00:02;;;;;;;;;8.25;7.00;;;;;24.92;53.79;101315.38;5074665;28;45508;-66
2023/07/09 09:02:33;;;;;;;;;11.00;10.00;;;;;24.95;54.00;101325.84;5079192;28;45427;-67
2023/07/09 09:04:58;;;;;;;;;8.25;8.25;;;;;25.00;53.80;101328.16;5074965;28;45570;-67
2023/07/09 09:07:26;;;;;;;;;20.75;14.50;;;;;25.06;53.32;101340.22;5075423;28;65384;-67
2023/07/09 09:10:01;;;;;;;;;6.25;6.25;;;;;25.07;53.31;101348.13;5077226;27;45224;-67
2023/07/09 09:12:30;;;;;;;;;9.50;8.00;;;;;25.11;53.21;101346.94;5079835;28;46025;-68
2023/07/09 09:15:04;;;;;;;;;11.00;8.25;;;;;25.15;53.62;101336.81;5078766;28;45261;-68
2023/07/09 09:17:34;;;;;;;;;7.00;4.00;;;;;25.18;52.98;101323.19;5061873;28;45277;-67
2023/07/09 09:20:03;;;;;;;;;6.00;6.00;;;;;25.18;52.90;101307.13;5079231;28;45452;-67
2023/07/09 09:22:46;;;;;;;;;9.50;8.00;;;;;25.20;53.41;101300.66;5080948;27;45260;-67
2023/07/09 09:25:32;;;;;;;;;7.25;6.50;;;;;25.19;53.21;101290.91;5077972;27;45702;-66
2023/07/09 09:28:00;;;;;;;;;8.50;6.50;;;;;25.19;52.90;101303.44;5076398;28;45197;-67
2023/07/09 09:30:25;;;;;;;;;7.50;7.00;;;;;25.17;52.58;101295.53;5065547;28;46156;-68
2023/07/09 09:33:14;;;;;;;;;6.00;6.00;;;;;25.16;53.04;101280.44;5080991;28;45359;-69
2023/07/09 09:35:41;;;;;;;;;9.00;8.00;;;;;25.12;52.80;101275.47;5073685;27;45544;-68
2023/07/09 09:38:22;;;;;;;;;8.00;6.00;;;;;25.12;52.86;101287.00;5062532;28;45453;-68
2023/07/09 09:40:47;;;;;;;;;7.50;7.25;;;;;25.15;52.53;101293.97;5059686;28;45554;-68
2023/07/09 09:43:19;;;;;;;;;9.25;6.00;;;;;25.14;52.35;101305.63;5079505;28;47286;-68
2023/07/09 09:45:46;;;;;;;;;7.00;5.50;;;;;25.11;52.29;101321.97;5071631;28;45619;-68
2023/07/09 09:48:26;;;;;;;;;8.00;7.00;;;;;25.06;52.31;101334.88;5080085;28;45604;-68
2023/07/09 09:50:51;;;;;;;;;7.25;7.00;;;;;25.05;52.46;101346.56;5072977;28;45335;-68
2023/07/09 09:53:22;;;;;;;;;10.50;8.75;;;;;25.05;52.56;101350.06;5072108;28;67663;-67
2023/07/09 09:55:49;;;;;;;;;12.50;9.00;;;;;25.10;52.56;101347.88;5073988;27;46396;-68
2023/07/09 09:58:15;;;;;;;;;11.25;10.25;;;;;25.17;53.16;101337.53;5079492;28;45336;-67
2023/07/09 10:00:51;;;;;;;;;12.00;10.75;;;;;25.23;53.04;101346.91;5052662;28;45947;-67
2023/07/09 10:03:16;;;;;;;;;9.25;9.00;;;;;25.28;53.21;101339.41;5072137;28;45320;-68
2023/07/09 10:05:49;;;;;;;;;15.50;10.25;;;;;25.32;53.96;101341.72;5069861;27;63207;-68
2023/07/09 10:08:31;;;;;;;;;10.50;7.25;;;;;25.34;53.44;101345.13;5076230;28;45664;-67
2023/07/09 10:11:06;;;;;;;;;11.50;10.00;;;;;25.32;53.55;101348.88;5054933;28;45528;-68
2023/07/09 10:13:34;;;;;;;;;13.00;11.50;;;;;25.31;53.63;101356.09;5091490;27;47266;-68
2023/07/09 10:16:09;;;;;;;;;12.75;10.25;;;;;25.38;54.17;101369.84;5074036;28;45284;-68
2023/07/09 10:18:43;;;;;;;;;11.75;10.50;;;;;25.44;54.37;101347.91;5058957;28;45405;-66
2023/07/09 10:21:17;;;;;;;;;14.75;13.50;;;;;25.49;54.33;101320.75;5066759;28;45449;-66
2023/07/09 10:23:59;;;;;;;;;12.00;10.50;;;;;25.50;54.00;101290.31;5066363;28;45455;-68
2023/07/09 10:26:27;;;;;;;;;10.50;10.50;;;;;25.48;54.12;101255.59;5068759;28;45327;-68
2023/07/09 10:28:59;;;;;;;;;12.25;9.50;;;;;25.44;53.89;101248.75;5079320;28;45407;-68
2023/07/09 10:31:36;;;;;;;;;10.50;9.00;;;;;25.33;54.49;101255.00;5073285;27;45219;-67
2023/07/09 10:34:20;;;;;;;;;12.00;10.50;;;;;25.27;53.73;101278.75;5079025;28;47081;-67
2023/07/09 10:37:04;;;;;;;;;10.75;8.00;;;;;25.25;54.27;101278.03;5075459;28;45625;-68
2023/07/09 10:39:34;;;;;;;;;9.25;8.50;;;;;25.26;54.15;101279.75;5077856;27;45598;-67
2023/07/09 10:42:01;;;;;;;;;13.00;10.00;;;;;25.33;53.99;101284.47;5074573;28;45364;-68
2023/07/09 10:44:36;;;;;;;;;10.00;10.00;;;;;25.48;53.92;101303.81;5076731;28;46297;-67
2023/07/09 10:47:09;;;;;;;;;11.25;7.75;;;;;25.54;53.81;101313.19;5075295;27;45193;-68
2023/07/09 10:49:38;;;;;;;;;11.00;10.75;;;;;25.54;53.62;101318.56;5076958;27;45283;-68
2023/07/09 10:52:21;;;;;;;;;12.00;10.75;;;;;25.56;53.75;101321.94;5057523;28;45251;-68
2023/07/09 10:54:58;;;;;;;;;11.50;8.50;;;;;25.64;53.58;101321.31;5064888;28;46712;-67
2023/07/09 10:57:35;;;;;;;;;13.25;11.75;;;;;25.72;53.39;101321.56;5076822;28;45501;-67
2023/07/09 11:00:01;;;;;;;;;11.00;10.25;;;;;25.80;53.38;101319.09;5074743;28;45238;-67
2023/07/09 11:02:33;;;;;;;;;17.00;15.25;;;;;25.99;53.57;101318.44;5076768;28;45525;-67
2023/07/09 11:05:00;;;;;;;;;15.75;13.25;;;;;26.11;52.34;101311.22;5073130;28;46335;-67
2023/07/09 11:07:38;;;;;;;;;10.00;9.00;;;;;26.10;52.59;101302.31;5065051;28;45461;-67
2023/07/09 11:10:20;;;;;;;;;12.50;10.50;;;;;26.07;52.60;101299.91;5076453;28;45563;-66
2023/07/09 11:12:52;;;;;;;;;11.50;10.75;;;;;26.00;52.82;101304.06;5078486;28;45481;-66
2023/07/09 11:15:25;;;;;;;;;12.00;8.75;;;;;25.97;52.66;101298.13;5055506;28;46917;-67
2023/07/09 11:17:51;;;;;;;;;11.00;10.25;;;;;25.95;52.74;101292.88;5071091;28;45368;-66
2023/07/09 11:20:31;;;;;;;;;11.25;9.75;;;;;25.98;53.04;101286.41;5076115;28;45401;-67
2023/07/09 11:23:25;;;;;;;;;9.50;8.00;;;;;26.06;52.59;101282.09;5078193;28;45460;-67